Time;durP1;ratioP1;P1;durP2;ratioP2;P2;SDS_P1;SDS_P2;PMS_P1;PMS_P2;Temp;Humidity;BMP_temperature;BMP_pressure;BME280_temperature;BME280_humidity;BME280_pressure;Samples;Min_cycle;Max_cycle;Signal;HPM_P1;HPM_P2
2021/05/29 00:01:10;;;;;;;3.03;2.73;;;14.10;63.40;;;;;;5073701;28;20425;-70
2021/05/29 00:03:37;;;;;;;3.70;3.00;;;14.20;63.60;;;;;;5073190;28;21071;-69
2021/05/29 00:06:03;;;;;;;3.17;2.77;;;14.10;63.70;;;;;;5073401;28;20445;-68
2021/05/29 00:08:31;;;;;;;2.80;2.60;;;14.00;64.00;;;;;;5073571;28;20448;-69
2021/05/29 00:11:00;;;;;;;2.87;2.30;;;14.00;64.10;;;;;;5073496;28;20445;-69
2021/05/29 00:13:28;;;;;;;3.23;3.03;;;14.00;64.30;;;;;;5073303;28;20898;-68
2021/05/29 00:15:55;;;;;;;2.67;2.47;;;14.00;64.60;;;;;;5073144;28;20469;-68
2021/05/29 00:18:24;;;;;;;4.97;3.37;;;14.00;64.70;;;;;;5072953;28;20453;-69
2021/05/29 00:20:51;;;;;;;3.17;2.70;;;13.90;64.60;;;;;;5073511;28;20455;-69
2021/05/29 00:23:17;;;;;;;3.30;3.00;;;13.90;64.80;;;;;;5073220;28;20493;-69
2021/05/29 00:25:44;;;;;;;3.40;3.10;;;13.90;65.00;;;;;;5073255;28;20441;-69
2021/05/29 00:28:11;;;;;;;3.00;2.70;;;13.90;65.40;;;;;;5073136;28;20487;-68
2021/05/29 00:30:38;;;;;;;3.13;2.93;;;13.90;65.40;;;;;;5072864;28;20852;-68
2021/05/29 00:33:06;;;;;;;3.03;2.83;;;13.80;65.40;;;;;;5073037;28;20535;-68
2021/05/29 00:35:32;;;;;;;3.40;3.10;;;13.80;65.60;;;;;;5073048;28;20459;-68
2021/05/29 00:37:58;;;;;;;4.80;3.20;;;13.80;65.70;;;;;;5072680;28;20465;-69
2021/05/29 00:40:25;;;;;;;3.43;3.13;;;13.70;65.80;;;;;;5073063;28;20451;-69
2021/05/29 00:42:52;;;;;;;3.20;2.33;;;13.70;65.70;;;;;;5073049;28;20463;-69
2021/05/29 00:45:18;;;;;;;2.00;1.90;;;13.60;65.30;;;;;;5072725;28;20938;-69
2021/05/29 00:47:44;;;;;;;2.43;2.23;;;13.60;65.50;;;;;;5072977;28;20969;-68
2021/05/29 00:50:13;;;;;;;3.23;2.10;;;13.40;65.20;;;;;;5073516;28;20456;-69
2021/05/29 00:52:40;;;;;;;2.83;2.63;;;13.40;65.70;;;;;;5073369;28;20534;-69
2021/05/29 00:55:10;;;;;;;2.20;1.90;;;13.30;65.80;;;;;;5072942;28;20794;-69
2021/05/29 00:57:39;;;;;;;2.40;2.20;;;13.30;66.20;;;;;;5073073;28;20464;-68
2021/05/29 01:00:09;;;;;;;2.73;1.90;;;13.20;66.20;;;;;;5072841;28;20444;-68
2021/05/29 01:02:36;;;;;;;4.37;2.60;;;13.20;66.70;;;;;;5072838;28;20529;-68
2021/05/29 01:05:03;;;;;;;2.90;2.67;;;13.20;67.00;;;;;;5072886;28;20483;-68
2021/05/29 01:07:29;;;;;;;4.77;2.73;;;13.20;66.90;;;;;;5072781;28;20465;-68
2021/05/29 01:09:56;;;;;;;6.47;3.60;;;13.10;67.90;;;;;;5075708;28;20448;-68
2021/05/29 01:12:22;;;;;;;2.70;2.50;;;13.10;67.50;;;;;;5076233;28;20530;-68
2021/05/29 01:14:53;;;;;;;2.90;2.70;;;13.10;67.40;;;;;;5075862;28;20961;-68
2021/05/29 01:17:21;;;;;;;3.00;2.80;;;13.10;67.20;;;;;;5076390;28;20484;-69
2021/05/29 01:19:47;;;;;;;3.53;2.73;;;13.10;67.50;;;;;;5076789;28;20440;-69
2021/05/29 01:22:14;;;;;;;4.00;3.70;;;13.10;67.90;;;;;;5076554;28;20816;-69
2021/05/29 01:24:41;;;;;;;3.20;2.90;;;13.00;67.80;;;;;;5076079;28;20826;-69
2021/05/29 01:27:08;;;;;;;6.23;3.10;;;13.00;67.70;;;;;;5075909;28;20464;-68
2021/05/29 01:29:35;;;;;;;3.53;3.23;;;12.90;68.00;;;;;;5075763;28;20914;-68
2021/05/29 01:32:04;;;;;;;3.40;3.10;;;12.90;68.00;;;;;;5075758;28;20472;-68
2021/05/29 01:34:32;;;;;;;3.73;3.43;;;12.90;68.00;;;;;;5075721;28;20514;-68
2021/05/29 01:37:01;;;;;;;3.73;3.20;;;12.90;68.10;;;;;;5075661;28;20460;-68
2021/05/29 01:39:29;;;;;;;3.57;3.27;;;12.90;68.20;;;;;;5075486;28;20459;-68
2021/05/29 01:41:55;;;;;;;3.47;3.17;;;12.80;68.10;;;;;;5075757;28;20440;-68
2021/05/29 01:44:22;;;;;;;4.50;4.10;;;12.80;68.30;;;;;;5075411;28;20445;-68
2021/05/29 01:46:50;;;;;;;3.87;3.53;;;12.80;68.60;;;;;;5075553;28;20468;-68
2021/05/29 01:49:16;;;;;;;6.47;3.23;;;12.80;68.30;;;;;;5075557;28;20448;-68
2021/05/29 01:51:42;;;;;;;2.93;2.70;;;12.70;68.50;;;;;;5075708;28;20510;-68
2021/05/29 01:54:09;;;;;;;3.30;3.00;;;12.70;68.70;;;;;;5075198;28;20441;-68
2021/05/29 01:56:36;;;;;;;3.70;3.27;;;12.70;68.50;;;;;;5075355;28;20469;-68
2021/05/29 01:59:02;;;;;;;3.50;3.20;;;12.60;68.40;;;;;;5075125;28;20982;-68
2021/05/29 02:01:29;;;;;;;4.30;3.90;;;12.60;68.30;;;;;;5075269;28;20939;-68
2021/05/29 02:03:55;;;;;;;4.10;3.80;;;12.50;68.00;;;;;;5075294;28;20467;-68
2021/05/29 02:06:21;;;;;;;4.20;3.63;;;12.50;68.30;;;;;;5075237;28;20468;-68
2021/05/29 02:08:47;;;;;;;3.97;3.60;;;12.50;68.70;;;;;;5075757;28;20440;-68
2021/05/29 02:11:13;;;;;;;3.80;3.40;;;12.40;68.80;;;;;;5075230;28;20448;-68
2021/05/29 02:13:42;;;;;;;4.00;3.70;;;12.40;68.90;;;;;;5075106;28;20491;-68
2021/05/29 02:16:11;;;;;;;4.80;3.63;;;12.40;69.00;;;;;;5074683;28;20476;-68
2021/05/29 02:18:39;;;;;;;6.80;3.80;;;12.40;69.20;;;;;;5075046;28;20466;-68
2021/05/29 02:21:08;;;;;;;4.47;4.03;;;12.30;69.00;;;;;;5074155;28;20440;-68
2021/05/29 02:23:36;;;;;;;4.67;4.23;;;12.30;69.00;;;;;;5074864;28;20472;-68
2021/05/29 02:26:04;;;;;;;3.97;3.57;;;12.30;69.00;;;;;;5074904;28;20440;-68
2021/05/29 02:28:31;;;;;;;4.40;4.00;;;12.30;69.10;;;;;;5074781;28;20441;-69
2021/05/29 02:30:59;;;;;;;4.23;3.87;;;12.20;69.20;;;;;;5074809;28;20448;-69
2021/05/29 02:33:26;;;;;;;4.10;3.70;;;12.20;69.20;;;;;;5074345;28;20476;-69
2021/05/29 02:35:53;;;;;;;3.70;3.40;;;12.20;69.20;;;;;;5074795;28;20451;-68
2021/05/29 02:38:19;;;;;;;3.80;3.50;;;12.20;69.20;;;;;;5074284;28;20456;-68
2021/05/29 02:40:46;;;;;;;3.83;3.53;;;12.20;69.40;;;;;;5074548;28;20494;-68
2021/05/29 02:43:12;;;;;;;5.03;4.03;;;12.20;69.60;;;;;;5074502;28;20445;-68
2021/05/29 02:45:39;;;;;;;4.00;3.70;;;12.10;69.40;;;;;;5074415;28;20486;-68
2021/05/29 02:48:08;;;;;;;3.93;3.60;;;12.10;69.50;;;;;;5074361;28;20464;-68
2021/05/29 02:50:34;;;;;;;4.80;4.30;;;12.10;69.80;;;;;;5074078;28;20973;-68
2021/05/29 02:53:01;;;;;;;4.13;3.83;;;12.10;69.90;;;;;;5073949;28;20886;-68
2021/05/29 02:55:27;;;;;;;4.83;4.33;;;12.00;69.90;;;;;;5074316;28;20451;-68
2021/05/29 02:57:55;;;;;;;5.13;4.63;;;12.00;70.00;;;;;;5074172;28;20522;-68
2021/05/29 03:00:22;;;;;;;3.90;3.70;;;12.00;70.00;;;;;;5074292;28;20448;-68
2021/05/29 03:02:49;;;;;;;3.90;3.60;;;12.00;70.10;;;;;;5074296;28;20441;-68
2021/05/29 03:05:16;;;;;;;4.67;4.27;;;12.00;70.20;;;;;;5074176;28;20453;-68
2021/05/29 03:07:43;;;;;;;5.93;4.70;;;12.00;70.20;;;;;;5074722;28;20989;-68
2021/05/29 03:10:10;;;;;;;4.93;4.17;;;12.00;70.10;;;;;;5074358;28;20899;-68
2021/05/29 03:12:37;;;;;;;5.50;5.00;;;12.00;70.90;;;;;;5074182;28;20481;-69
2021/05/29 03:15:06;;;;;;;7.23;5.00;;;12.00;70.50;;;;;;5073951;28;20863;-69
2021/05/29 03:17:32;;;;;;;5.60;5.10;;;12.00;71.00;;;;;;5073645;28;20485;-68
2021/05/29 03:19:59;;;;;;;6.30;5.70;;;12.00;71.50;;;;;;5074043;28;20471;-68
2021/05/29 03:22:26;;;;;;;6.90;6.20;;;12.00;72.00;;;;;;5073657;28;20557;-68
2021/05/29 03:24:52;;;;;;;7.30;5.60;;;12.10;72.50;;;;;;5074619;28;20617;-68
2021/05/29 03:27:19;;;;;;;7.00;5.50;;;12.10;72.80;;;;;;5073475;28;20460;-68
2021/05/29 03:29:46;;;;;;;6.70;6.10;;;12.10;72.90;;;;;;5073865;28;20786;-68
2021/05/29 03:32:13;;;;;;;6.37;5.70;;;12.10;73.10;;;;;;5073495;28;20891;-68
2021/05/29 03:34:39;;;;;;;6.90;6.20;;;12.10;72.90;;;;;;5073684;28;20505;-68
2021/05/29 03:37:06;;;;;;;6.10;5.60;;;12.10;72.50;;;;;;5073232;28;20475;-68
2021/05/29 03:39:33;;;;;;;5.53;5.03;;;12.00;72.40;;;;;;5073374;28;21004;-68
2021/05/29 03:41:59;;;;;;;4.60;4.20;;;12.00;71.70;;;;;;5073288;28;20951;-68
2021/05/29 03:44:25;;;;;;;5.53;5.07;;;12.00;71.60;;;;;;5073514;28;20448;-68
2021/05/29 03:46:51;;;;;;;5.47;5.07;;;11.90;71.20;;;;;;5073106;28;20475;-68
2021/05/29 03:49:17;;;;;;;5.37;4.97;;;11.90;71.30;;;;;;5073474;28;20459;-68
2021/05/29 03:51:44;;;;;;;4.90;4.50;;;11.80;71.20;;;;;;5072996;28;20449;-68
2021/05/29 03:54:10;;;;;;;4.43;4.13;;;11.80;71.20;;;;;;5073485;28;20433;-68
2021/05/29 03:56:38;;;;;;;5.20;4.80;;;11.80;71.00;;;;;;5073314;28;20464;-68
2021/05/29 03:59:04;;;;;;;5.77;5.20;;;11.70;71.00;;;;;;5073424;28;20440;-68
2021/05/29 04:01:31;;;;;;;5.77;5.27;;;11.70;71.40;;;;;;5073307;28;20452;-68
2021/05/29 04:03:57;;;;;;;5.83;4.80;;;11.70;71.80;;;;;;5073323;28;20451;-69
2021/05/29 04:06:23;;;;;;;5.00;4.50;;;11.70;71.90;;;;;;5073260;28;20487;-68
2021/05/29 04:08:50;;;;;;;6.03;5.30;;;11.70;71.60;;;;;;5073327;28;20451;-68
2021/05/29 04:11:17;;;;;;;5.17;4.70;;;11.70;71.90;;;;;;5073261;28;20445;-68
2021/05/29 04:13:44;;;;;;;5.27;4.77;;;11.70;72.10;;;;;;5073147;28;20485;-68
2021/05/29 04:16:10;;;;;;;5.07;4.57;;;11.60;72.00;;;;;;5073063;28;20487;-68
2021/05/29 04:18:37;;;;;;;6.03;5.53;;;11.60;72.30;;;;;;5073205;28;20449;-68
2021/05/29 04:21:03;;;;;;;5.87;5.37;;;11.60;72.50;;;;;;5073151;28;20453;-68
2021/05/29 04:23:29;;;;;;;7.23;4.80;;;11.60;72.50;;;;;;5073141;28;20449;-68
2021/05/29 04:25:56;;;;;;;5.50;5.00;;;11.60;72.60;;;;;;5073026;28;20445;-68
2021/05/29 04:28:22;;;;;;;6.13;5.53;;;11.60;72.90;;;;;;5073093;28;20863;-68
2021/05/29 04:30:49;;;;;;;5.60;5.10;;;11.60;73.10;;;;;;5073121;28;20816;-68
2021/05/29 04:33:16;;;;;;;5.90;5.40;;;11.60;74.20;;;;;;5073055;28;20480;-68
2021/05/29 04:35:42;;;;;;;4.63;4.30;;;11.70;73.70;;;;;;5073077;28;20445;-68
2021/05/29 04:38:09;;;;;;;5.90;5.40;;;11.70;73.60;;;;;;5072974;28;20819;-68
2021/05/29 04:40:35;;;;;;;5.67;5.17;;;11.70;73.80;;;;;;5073005;28;20520;-68
2021/05/29 04:43:02;;;;;;;6.40;5.80;;;11.70;73.90;;;;;;5073034;28;20447;-68
2021/05/29 04:45:28;;;;;;;6.67;5.97;;;11.70;74.50;;;;;;5076878;28;20451;-68
2021/05/29 04:47:55;;;;;;;6.53;5.40;;;11.80;75.30;;;;;;5076548;28;20476;-68
2021/05/29 04:50:22;;;;;;;6.03;5.53;;;11.80;75.60;;;;;;5076675;28;20453;-68
2021/05/29 04:52:48;;;;;;;7.70;6.17;;;11.80;76.40;;;;;;5076555;28;20484;-68
2021/05/29 04:55:15;;;;;;;6.73;6.13;;;11.80;76.60;;;;;;5076358;28;20907;-68
2021/05/29 04:57:42;;;;;;;8.67;7.00;;;11.90;77.00;;;;;;5076433;28;20556;-68
2021/05/29 05:00:11;;;;;;;8.33;7.43;;;11.90;77.40;;;;;;5076553;28;20444;-68
2021/05/29 05:02:37;;;;;;;7.40;6.57;;;12.00;77.70;;;;;;5076446;28;20440;-68
2021/05/29 05:05:06;;;;;;;7.37;6.60;;;12.00;77.70;;;;;;5076137;28;20973;-69
2021/05/29 05:07:32;;;;;;;7.60;6.80;;;12.10;78.10;;;;;;5076278;28;20456;-68
2021/05/29 05:09:59;;;;;;;7.50;6.80;;;12.10;78.30;;;;;;5076341;28;20456;-68
2021/05/29 05:12:25;;;;;;;7.33;6.63;;;12.10;78.60;;;;;;5076159;28;20549;-68
2021/05/29 05:14:51;;;;;;;8.87;7.87;;;12.10;78.90;;;;;;5075935;28;20506;-68
2021/05/29 05:17:17;;;;;;;8.00;7.30;;;12.20;79.50;;;;;;5076034;28;20495;-69
2021/05/29 05:19:44;;;;;;;8.30;7.60;;;12.30;80.00;;;;;;5075828;28;20444;-69
2021/05/29 05:22:11;;;;;;;11.23;8.60;;;12.30;80.20;;;;;;5076067;28;20535;-69
2021/05/29 05:24:37;;;;;;;11.53;8.90;;;12.40;80.60;;;;;;5075957;28;20444;-69
2021/05/29 05:27:04;;;;;;;8.07;7.30;;;12.40;80.90;;;;;;5075926;28;20469;-68
2021/05/29 05:29:31;;;;;;;8.37;7.60;;;12.50;81.30;;;;;;5075842;28;20440;-68
2021/05/29 05:31:57;;;;;;;7.53;6.83;;;12.60;82.10;;;;;;5075817;28;20514;-68
2021/05/29 05:34:23;;;;;;;9.03;8.13;;;12.60;82.40;;;;;;5075460;28;20931;-68
2021/05/29 05:36:50;;;;;;;10.60;9.60;;;12.70;82.60;;;;;;5075402;28;20475;-70
2021/05/29 05:39:17;;;;;;;9.97;9.00;;;12.80;83.20;;;;;;5076066;28;20440;-69
2021/05/29 05:41:43;;;;;;;11.00;9.87;;;12.80;83.50;;;;;;5075723;28;20448;-69
2021/05/29 05:44:09;;;;;;;8.27;7.47;;;12.90;83.60;;;;;;5075714;28;20449;-69
2021/05/29 05:46:37;;;;;;;11.03;9.07;;;13.00;83.90;;;;;;5075556;28;20811;-68
2021/05/29 05:49:03;;;;;;;8.97;8.10;;;13.10;83.60;;;;;;5075352;28;21000;-68
2021/05/29 05:51:32;;;;;;;10.33;9.33;;;13.20;83.60;;;;;;5075564;28;20501;-68
2021/05/29 05:53:58;;;;;;;14.10;12.60;;;13.30;83.20;;;;;;5075510;28;20583;-68
2021/05/29 05:56:28;;;;;;;12.93;11.63;;;13.40;83.40;;;;;;5074266;28;20468;-68
2021/05/29 05:58:56;;;;;;;12.63;11.27;;;13.50;83.60;;;;;;5075586;28;20445;-68
2021/05/29 06:01:23;;;;;;;14.27;12.97;;;13.60;83.60;;;;;;5075461;28;20489;-68
2021/05/29 06:03:49;;;;;;;11.40;10.23;;;13.70;83.60;;;;;;5075349;28;20441;-68
2021/05/29 06:06:15;;;;;;;10.93;9.67;;;13.80;83.10;;;;;;5075218;28;20465;-68
2021/05/29 06:08:42;;;;;;;12.50;11.17;;;13.80;82.30;;;;;;5075295;28;20441;-68
2021/05/29 06:11:09;;;;;;;10.13;8.97;;;14.00;82.50;;;;;;5074924;28;20441;-68
2021/05/29 06:19:13;;;;;;;10.93;9.77;;;14.30;81.80;;;;;;5075672;28;20404;-68
2021/05/29 06:21:45;;;;;;;11.30;10.20;;;14.50;81.30;;;;;;5075215;28;20445;-68
2021/05/29 06:24:12;;;;;;;11.00;9.90;;;14.60;81.00;;;;;;5074881;28;20502;-68
2021/05/29 06:26:39;;;;;;;11.07;9.97;;;14.70;79.70;;;;;;5075043;28;20460;-68
2021/05/29 06:29:06;;;;;;;9.53;8.57;;;14.90;80.00;;;;;;5075090;28;20930;-69
2021/05/29 06:31:32;;;;;;;9.60;8.37;;;15.00;80.40;;;;;;5074969;28;20452;-69
2021/05/29 06:33:58;;;;;;;8.60;7.70;;;15.20;79.30;;;;;;5074363;28;21059;-69
2021/05/29 06:36:25;;;;;;;8.33;7.53;;;15.30;78.80;;;;;;5074730;28;20465;-68
2021/05/29 06:38:51;;;;;;;8.97;7.60;;;15.50;77.60;;;;;;5074686;28;20440;-69
2021/05/29 06:41:17;;;;;;;8.73;7.23;;;15.60;77.30;;;;;;5074311;28;20452;-69
2021/05/29 06:43:44;;;;;;;9.27;7.67;;;15.70;77.00;;;;;;5074710;28;20437;-69
2021/05/29 06:46:13;;;;;;;6.33;5.73;;;15.80;76.60;;;;;;5074518;28;20461;-69
2021/05/29 06:48:39;;;;;;;9.23;7.13;;;16.00;76.50;;;;;;5074567;28;20445;-69
2021/05/29 06:51:06;;;;;;;9.20;5.87;;;16.10;76.30;;;;;;5074702;28;20449;-71
2021/05/29 06:53:36;;;;;;;4.40;4.00;;;16.30;74.70;;;;;;5076695;28;20481;-71
2021/05/29 06:58:50;;;;;;;6.50;5.20;;;16.70;71.20;;;;;;5074572;28;20598;-70
2021/05/29 07:01:19;;;;;;;6.87;5.07;;;17.00;70.50;;;;;;5074453;28;20461;-70
2021/05/29 07:03:45;;;;;;;5.77;5.23;;;17.20;69.40;;;;;;5074244;28;20444;-70
2021/05/29 07:06:14;;;;;;;6.63;4.93;;;17.40;68.90;;;;;;5074383;28;20477;-70
2021/05/29 07:08:41;;;;;;;5.87;5.27;;;17.60;68.30;;;;;;5075301;28;20448;-71
2021/05/29 07:11:07;;;;;;;7.43;6.37;;;17.80;67.20;;;;;;5074161;28;20441;-71
2021/05/29 07:13:33;;;;;;;5.50;5.00;;;18.10;66.40;;;;;;5074087;28;20478;-70
2021/05/29 07:16:01;;;;;;;5.80;5.30;;;18.30;65.30;;;;;;5073839;28;20463;-70
2021/05/29 07:18:29;;;;;;;9.30;7.10;;;18.50;64.50;;;;;;5074091;28;20445;-70
2021/05/29 07:20:56;;;;;;;6.27;5.67;;;18.70;65.40;;;;;;5073883;28;20439;-71
2021/05/29 07:23:22;;;;;;;6.97;5.67;;;18.90;64.60;;;;;;5073764;28;20460;-71
2021/05/29 07:25:49;;;;;;;8.90;5.87;;;19.10;63.80;;;;;;5073844;28;20456;-71
2021/05/29 07:28:16;;;;;;;7.97;7.17;;;19.40;62.70;;;;;;5073727;28;20778;-70
2021/05/29 07:30:42;;;;;;;6.50;5.87;;;19.60;61.20;;;;;;5074017;28;20451;-71
2021/05/29 07:33:08;;;;;;;7.33;6.73;;;19.80;61.10;;;;;;5074089;28;20473;-71
2021/05/29 07:35:35;;;;;;;7.20;6.50;;;20.00;60.90;;;;;;5073676;28;20449;-71
2021/05/29 07:38:02;;;;;;;6.37;5.17;;;20.10;59.80;;;;;;5073562;28;20467;-70
2021/05/29 07:40:28;;;;;;;6.13;5.17;;;20.20;59.10;;;;;;5074714;28;20449;-70
2021/05/29 07:42:55;;;;;;;6.13;5.67;;;20.40;58.90;;;;;;5073332;28;20444;-71
2021/05/29 07:45:21;;;;;;;6.37;5.20;;;20.60;58.40;;;;;;5073282;28;20523;-71
2021/05/29 07:47:47;;;;;;;6.73;5.67;;;20.80;58.30;;;;;;5073405;28;20464;-70
2021/05/29 07:50:15;;;;;;;4.77;3.90;;;21.00;57.80;;;;;;5073483;28;20429;-71
2021/05/29 07:52:43;;;;;;;4.97;4.40;;;21.20;57.60;;;;;;5073549;28;20581;-71
2021/05/29 07:55:11;;;;;;;6.03;5.20;;;21.40;56.60;;;;;;5073490;28;20448;-70
2021/05/29 07:57:37;;;;;;;6.20;5.20;;;21.60;56.30;;;;;;5073071;28;21000;-70
2021/05/29 08:00:05;;;;;;;4.60;4.10;;;21.80;56.50;;;;;;5073353;28;20448;-70
2021/05/29 08:02:32;;;;;;;4.43;3.83;;;22.00;54.50;;;;;;5072858;28;20491;-70
2021/05/29 08:04:58;;;;;;;5.63;4.77;;;22.20;54.90;;;;;;5073296;28;20455;-70
2021/05/29 08:07:24;;;;;;;4.20;3.80;;;22.40;54.70;;;;;;5073493;28;20468;-71
2021/05/29 08:09:51;;;;;;;6.10;4.10;;;22.60;54.00;;;;;;5073368;28;20445;-71
2021/05/29 08:12:17;;;;;;;5.20;4.10;;;22.80;53.50;;;;;;5073305;28;20472;-70
2021/05/29 08:14:44;;;;;;;7.67;4.40;;;23.00;53.40;;;;;;5073269;28;20445;-70
2021/05/29 08:17:10;;;;;;;3.63;3.30;;;23.10;53.30;;;;;;5072775;28;20994;-70
2021/05/29 08:19:36;;;;;;;4.10;3.07;;;23.30;52.30;;;;;;5076038;28;20429;-70
2021/05/29 08:22:03;;;;;;;3.17;2.97;;;23.50;51.80;;;;;;5077379;28;20448;-70
2021/05/29 08:24:29;;;;;;;4.53;4.10;;;23.70;51.90;;;;;;5077231;28;20535;-70
2021/05/29 08:26:56;;;;;;;3.10;2.80;;;23.80;50.60;;;;;;5077095;28;20464;-70
2021/05/29 08:29:23;;;;;;;3.30;3.10;;;23.70;49.80;;;;;;5076882;28;20440;-71
2021/05/29 08:31:49;;;;;;;6.80;3.90;;;23.70;49.40;;;;;;5077082;28;20444;-70
2021/05/29 08:34:15;;;;;;;5.50;3.90;;;23.70;50.20;;;;;;5076950;28;20506;-70
2021/05/29 08:36:42;;;;;;;3.60;2.70;;;23.50;48.40;;;;;;5076920;28;20534;-71
2021/05/29 08:39:10;;;;;;;4.77;2.77;;;23.50;49.60;;;;;;5076990;28;20444;-70
2021/05/29 08:41:37;;;;;;;4.40;3.80;;;23.60;49.90;;;;;;5076899;28;20441;-70
2021/05/29 08:44:05;;;;;;;3.80;2.97;;;23.70;49.30;;;;;;5076596;28;20447;-70
2021/05/29 08:46:32;;;;;;;3.90;2.50;;;23.90;48.80;;;;;;5076752;28;20460;-70
2021/05/29 08:48:59;;;;;;;4.77;3.47;;;24.10;48.30;;;;;;5076809;28;20452;-70
2021/05/29 08:51:25;;;;;;;6.90;3.20;;;24.30;48.50;;;;;;5076732;28;20467;-70
2021/05/29 08:53:56;;;;;;;3.97;2.97;;;24.50;47.40;;;;;;5076646;28;20484;-70
2021/05/29 08:56:22;;;;;;;9.90;2.50;;;24.70;45.80;;;;;;5076649;28;20476;-70
2021/05/29 08:58:49;;;;;;;4.73;2.17;;;24.80;44.70;;;;;;5076234;28;20897;-70
2021/05/29 09:01:17;;;;;;;3.80;1.87;;;24.90;45.00;;;;;;5076524;28;20471;-70
2021/05/29 09:03:46;;;;;;;4.50;2.70;;;24.90;44.00;;;;;;5076505;28;20445;-70
2021/05/29 09:06:14;;;;;;;2.80;2.37;;;25.00;43.60;;;;;;5076443;28;20491;-69
2021/05/29 09:08:52;;;;;;;3.33;2.17;;;25.20;43.70;;;;;;5076376;28;20498;-70
2021/05/29 09:11:42;;;;;;;3.00;2.03;;;25.40;43.50;;;;;;5076316;28;20444;-70
2021/05/29 09:14:35;;;;;;;2.83;2.23;;;25.60;43.20;;;;;;5075945;28;20997;-70
2021/05/29 09:17:06;;;;;;;6.27;3.07;;;25.80;42.90;;;;;;5076005;28;20496;-70
2021/05/29 09:19:52;;;;;;;3.43;3.13;;;26.10;43.70;;;;;;5076264;28;20432;-70
2021/05/29 09:22:20;;;;;;;10.47;4.00;;;26.10;39.10;;;;;;5076192;28;20417;-70
2021/05/29 09:25:00;;;;;;;4.70;3.63;;;26.00;41.80;;;;;;5076081;28;20449;-70
2021/05/29 09:27:26;;;;;;;4.57;3.13;;;26.00;41.50;;;;;;5075965;28;20456;-70
2021/05/29 09:29:52;;;;;;;5.50;3.03;;;26.00;41.60;;;;;;5075347;28;20441;-70
2021/05/29 09:32:20;;;;;;;4.83;3.23;;;25.80;40.10;;;;;;5075520;28;20487;-71
2021/05/29 09:34:50;;;;;;;7.50;3.17;;;25.70;40.60;;;;;;5075928;28;20447;-71
2021/05/29 09:37:19;;;;;;;16.50;6.50;;;25.60;41.60;;;;;;5076369;28;20467;-71
2021/05/29 09:39:46;;;;;;;6.23;2.90;;;25.60;41.50;;;;;;5075690;28;20922;-72
2021/05/29 09:42:14;;;;;;;3.83;2.17;;;25.80;41.40;;;;;;5075794;28;20453;-72
2021/05/29 09:44:40;;;;;;;4.03;2.10;;;26.00;41.00;;;;;;5075706;28;20445;-72
2021/05/29 09:47:09;;;;;;;9.77;4.33;;;26.40;40.50;;;;;;5075204;28;20464;-72
2021/05/29 09:49:47;;;;;;;4.10;2.60;;;26.80;39.40;;;;;;5075607;28;20433;-72
2021/05/29 09:52:29;;;;;;;2.77;1.87;;;27.20;39.50;;;;;;5075490;28;20464;-72
2021/05/29 09:54:57;;;;;;;5.77;2.70;;;27.60;39.30;;;;;;5076126;28;20432;-71
2021/05/29 09:57:27;;;;;;;3.83;2.70;;;28.00;37.60;;;;;;5075407;28;20468;-71
2021/05/29 09:59:54;;;;;;;4.13;2.37;;;28.40;37.10;;;;;;5075477;28;20453;-71
2021/05/29 10:02:21;;;;;;;6.13;3.10;;;28.70;35.90;;;;;;5075466;28;20499;-71
2021/05/29 10:04:52;;;;;;;3.47;3.17;;;29.20;35.10;;;;;;5075695;28;20421;-71
2021/05/29 10:07:20;;;;;;;5.17;3.30;;;29.20;33.80;;;;;;5075324;28;20572;-71
2021/05/29 10:09:47;;;;;;;3.43;2.47;;;29.20;33.60;;;;;;5074968;28;20958;-71
2021/05/29 10:12:13;;;;;;;6.60;2.43;;;28.70;34.20;;;;;;5075198;28;20463;-71
2021/05/29 10:14:40;;;;;;;3.40;3.10;;;28.30;35.50;;;;;;5075220;28;20494;-71
2021/05/29 10:17:08;;;;;;;3.60;2.60;;;28.00;36.10;;;;;;5074951;28;20820;-71
2021/05/29 10:19:37;;;;;;;4.00;2.20;;;27.70;37.00;;;;;;5074830;28;20926;-71
2021/05/29 10:22:06;;;;;;;4.00;3.43;;;27.50;37.40;;;;;;5075041;28;20452;-71
2021/05/29 10:24:32;;;;;;;7.83;4.17;;;27.60;38.60;;;;;;5075120;28;20496;-71
2021/05/29 10:27:02;;;;;;;6.40;3.63;;;28.10;38.10;;;;;;5075663;28;20468;-71
2021/05/29 10:29:29;;;;;;;5.47;3.30;;;28.80;37.20;;;;;;5074893;28;20429;-71
2021/05/29 10:32:10;;;;;;;5.07;3.40;;;29.50;36.00;;;;;;5074895;28;20452;-72
2021/05/29 10:35:07;;;;;;;4.50;3.83;;;30.30;34.00;;;;;;5074599;28;20902;-72
2021/05/29 10:37:39;;;;;;;4.10;3.70;;;31.10;31.10;;;;;;5012661;28;20470;-72
2021/05/29 10:40:23;;;;;;;3.53;3.23;;;31.70;30.20;;;;;;5063016;28;20965;-72
2021/05/29 10:43:08;;;;;;;3.27;2.97;;;32.40;29.50;;;;;;5074075;28;20451;-72
2021/05/29 10:45:36;;;;;;;3.37;2.70;;;33.10;28.80;;;;;;5074327;28;20860;-72
2021/05/29 10:48:12;;;;;;;4.37;3.97;;;33.90;27.70;;;;;;5074166;28;20468;-72
2021/05/29 10:51:00;;;;;;;3.80;3.50;;;34.60;26.70;;;;;;5074508;28;20445;-72
2021/05/29 10:53:43;;;;;;;3.40;3.10;;;35.40;25.90;;;;;;5074354;28;20475;-73
2021/05/29 10:56:29;;;;;;;6.07;3.43;;;35.10;24.20;;;;;;5074591;28;20439;-71
2021/05/29 10:59:01;;;;;;;3.20;2.90;;;33.60;26.10;;;;;;5073935;28;20938;-71
2021/05/29 11:02:01;;;;;;;4.43;3.80;;;33.00;27.50;;;;;;5074297;28;20524;-72
2021/05/29 11:04:30;;;;;;;3.30;3.00;;;33.50;28.10;;;;;;5074186;28;20443;-72
2021/05/29 11:06:58;;;;;;;4.90;3.40;;;34.30;26.90;;;;;;5074262;28;20478;-73
2021/05/29 11:09:55;;;;;;;9.60;3.27;;;35.10;25.00;;;;;;5074126;28;20454;-73
2021/05/29 11:12:22;;;;;;;3.40;3.00;;;35.50;23.20;;;;;;5074183;28;20428;-73
2021/05/29 11:14:55;;;;;;;5.07;2.60;;;36.00;23.20;;;;;;5073999;28;20444;-73
2021/05/29 11:17:22;;;;;;;2.60;2.37;;;36.30;23.40;;;;;;5073617;28;20487;-72
2021/05/29 11:20:14;;;;;;;3.47;2.40;;;36.80;24.00;;;;;;5074014;28;20443;-72
2021/05/29 11:22:43;;;;;;;2.57;2.37;;;37.60;23.30;;;;;;5073675;28;20276;-72
2021/05/29 11:25:14;;;;;;;2.92;1.90;;;38.20;22.30;;;;;;5073867;28;20197;-72
2021/05/29 11:27:41;;;;;;;2.10;1.75;;;38.90;22.10;;;;;;5074396;28;20221;-72
2021/05/29 11:30:10;;;;;;;3.35;2.30;;;39.50;21.30;;;;;;5073820;28;20208;-72
2021/05/29 11:32:43;;;;;;;2.45;2.13;;;40.10;19.90;;;;;;5073690;28;20275;-73
2021/05/29 11:35:21;;;;;;;2.35;2.00;;;40.70;20.10;;;;;;5073741;28;20640;-73
2021/05/29 11:38:12;;;;;;;2.42;1.90;;;41.20;19.60;;;;;;5073674;28;20583;-73
2021/05/29 11:40:51;;;;;;;2.72;2.00;;;41.70;19.10;;;;;;5073694;28;20190;-73
2021/05/29 11:43:21;;;;;;;2.30;2.10;;;42.00;18.40;;;;;;5073595;28;20193;-73
2021/05/29 11:45:54;;;;;;;2.50;2.30;;;42.40;17.70;;;;;;5073693;28;20243;-73
2021/05/29 11:48:28;;;;;;;5.38;2.90;;;42.70;17.80;;;;;;5073618;28;20186;-72
2021/05/29 11:51:09;;;;;;;2.03;1.83;;;43.00;16.70;;;;;;5073606;28;20186;-72
2021/05/29 11:53:36;;;;;;;3.25;2.10;;;43.20;17.10;;;;;;5073186;28;20683;-73
2021/05/29 11:56:05;;;;;;;3.50;2.42;;;43.40;16.50;;;;;;5073427;28;20201;-73
2021/05/29 11:58:56;;;;;;;3.17;2.30;;;43.60;17.00;;;;;;5073506;28;20251;-73
2021/05/29 12:01:24;;;;;;;2.40;2.20;;;43.70;17.00;;;;;;5073628;28;20181;-73
2021/05/29 12:03:53;;;;;;;2.75;2.55;;;43.80;17.00;;;;;;5073462;28;20201;-73
2021/05/29 12:06:35;;;;;;;3.88;3.00;;;43.80;16.20;;;;;;5073330;28;20249;-70
2021/05/29 12:09:04;;;;;;;2.80;2.42;;;43.20;15.90;;;;;;5073278;28;20213;-71
2021/05/29 12:11:33;;;;;;;4.10;3.40;;;42.90;17.30;;;;;;5073268;28;20205;-71
2021/05/29 12:14:08;;;;;;;7.50;2.90;;;42.50;17.20;;;;;;5073438;28;20221;-71
2021/05/29 12:16:37;;;;;;;3.58;3.05;;;41.50;17.90;;;;;;5073027;28;20251;-70
2021/05/29 12:19:04;;;;;;;3.25;2.85;;;40.20;18.80;;;;;;5073274;28;20210;-71
2021/05/29 12:21:48;;;;;;;3.67;3.30;;;39.60;19.50;;;;;;5073282;28;20212;-71
2021/05/29 12:24:16;;;;;;;4.15;3.83;;;39.60;19.40;;;;;;5073281;28;20190;-70
2021/05/29 12:26:45;;;;;;;4.22;3.85;;;39.80;19.50;;;;;;5072911;28;20229;-70
2021/05/29 12:29:12;;;;;;;12.00;4.63;;;40.10;18.90;;;;;;5073489;28;20278;-70
2021/05/29 12:31:47;;;;;;;5.15;4.80;;;40.40;19.00;;;;;;5073572;28;20202;-71
2021/05/29 12:34:13;;;;;;;3.88;3.58;;;40.50;18.90;;;;;;5073158;28;20718;-71
2021/05/29 12:37:02;;;;;;;4.43;4.03;;;40.00;18.10;;;;;;5072775;28;20719;-71
2021/05/29 12:39:50;;;;;;;4.32;3.83;;;39.90;19.30;;;;;;5073076;28;20182;-71
2021/05/29 12:42:30;;;;;;;4.78;4.38;;;40.00;19.60;;;;;;5073063;28;20187;-70
2021/05/29 12:44:58;;;;;;;5.03;4.53;;;40.00;18.40;;;;;;5072761;28;20636;-70
2021/05/29 12:47:26;;;;;;;4.80;4.40;;;39.50;18.80;;;;;;5072695;28;20218;-70
2021/05/29 12:49:52;;;;;;;4.43;4.13;;;39.00;20.20;;;;;;5073056;28;20610;-71
2021/05/29 12:52:23;;;;;;;4.82;4.43;;;38.40;19.80;;;;;;5073002;28;20209;-70
2021/05/29 12:54:49;;;;;;;9.93;5.80;;;37.10;21.00;;;;;;5072908;28;20210;-70
2021/05/29 12:57:17;;;;;;;5.90;4.77;;;36.10;22.50;;;;;;5072949;28;20226;-70
2021/05/29 12:59:44;;;;;;;5.67;5.23;;;35.10;23.50;;;;;;5072874;28;20474;-70
2021/05/29 13:02:32;;;;;;;4.47;4.17;;;34.20;24.40;;;;;;5072914;28;20450;-71